sensor_id;sensor_type;location;lat;lon;timestamp;P1;durP1;ratioP1;P2;durP2;ratioP2
5022;SDS011;2530;47.990;7.866;2023-04-09T00:01:14;13.60;;;12.40;;
5022;SDS011;2530;47.990;7.866;2023-04-09T00:03:40;12.75;;;11.55;;
5022;SDS011;2530;47.990;7.866;2023-04-09T00:06:06;13.70;;;12.40;;
5022;SDS011;2530;47.990;7.866;2023-04-09T00:08:31;13.33;;;12.13;;
5022;SDS011;2530;47.990;7.866;2023-04-09T00:10:57;12.70;;;11.60;;
5022;SDS011;2530;47.990;7.866;2023-04-09T00:13:23;13.75;;;12.35;;
5022;SDS011;2530;47.990;7.866;2023-04-09T00:15:49;14.23;;;12.93;;
5022;SDS011;2530;47.990;7.866;2023-04-09T00:18:15;13.03;;;11.87;;
5022;SDS011;2530;47.990;7.866;2023-04-09T00:20:41;13.40;;;12.10;;
5022;SDS011;2530;47.990;7.866;2023-04-09T00:23:07;14.35;;;11.82;;
5022;SDS011;2530;47.990;7.866;2023-04-09T00:25:33;14.18;;;12.77;;
5022;SDS011;2530;47.990;7.866;2023-04-09T00:27:58;12.98;;;11.77;;
5022;SDS011;2530;47.990;7.866;2023-04-09T00:30:24;13.55;;;12.25;;
5022;SDS011;2530;47.990;7.866;2023-04-09T00:32:52;13.20;;;12.00;;
5022;SDS011;2530;47.990;7.866;2023-04-09T00:35:17;13.73;;;12.40;;
5022;SDS011;2530;47.990;7.866;2023-04-09T00:37:43;13.90;;;12.60;;
5022;SDS011;2530;47.990;7.866;2023-04-09T00:40:08;14.50;;;13.10;;
5022;SDS011;2530;47.990;7.866;2023-04-09T00:42:34;14.05;;;12.82;;
5022;SDS011;2530;47.990;7.866;2023-04-09T00:45:01;14.30;;;12.90;;
5022;SDS011;2530;47.990;7.866;2023-04-09T00:47:30;12.97;;;11.87;;
5022;SDS011;2530;47.990;7.866;2023-04-09T00:49:56;13.60;;;12.23;;
5022;SDS011;2530;47.990;7.866;2023-04-09T00:52:23;12.77;;;11.63;;
5022;SDS011;2530;47.990;7.866;2023-04-09T00:54:49;12.70;;;11.50;;
5022;SDS011;2530;47.990;7.866;2023-04-09T00:57:16;12.98;;;11.77;;
5022;SDS011;2530;47.990;7.866;2023-04-09T00:59:45;13.03;;;11.90;;
5022;SDS011;2530;47.990;7.866;2023-04-09T01:02:11;13.00;;;11.70;;
5022;SDS011;2530;47.990;7.866;2023-04-09T01:04:37;11.98;;;10.88;;
5022;SDS011;2530;47.990;7.866;2023-04-09T01:07:09;12.20;;;11.00;;
5022;SDS011;2530;47.990;7.866;2023-04-09T01:09:49;12.82;;;10.40;;
5022;SDS011;2530;47.990;7.866;2023-04-09T01:15:07;12.00;;;10.80;;
5022;SDS011;2530;47.990;7.866;2023-04-09T01:20:41;11.70;;;10.50;;
5022;SDS011;2530;47.990;7.866;2023-04-09T01:26:02;10.53;;;9.53;;
5022;SDS011;2530;47.990;7.866;2023-04-09T01:28:44;11.13;;;10.13;;
5022;SDS011;2530;47.990;7.866;2023-04-09T01:31:13;10.68;;;9.77;;
5022;SDS011;2530;47.990;7.866;2023-04-09T01:33:42;11.10;;;9.50;;
5022;SDS011;2530;47.990;7.866;2023-04-09T01:36:08;10.93;;;9.83;;
5022;SDS011;2530;47.990;7.866;2023-04-09T01:38:36;10.60;;;9.23;;
5022;SDS011;2530;47.990;7.866;2023-04-09T01:41:07;10.38;;;9.38;;
5022;SDS011;2530;47.990;7.866;2023-04-09T01:43:35;10.15;;;9.18;;
5022;SDS011;2530;47.990;7.866;2023-04-09T01:46:02;10.10;;;9.20;;
5022;SDS011;2530;47.990;7.866;2023-04-09T01:48:29;11.02;;;8.85;;
5022;SDS011;2530;47.990;7.866;2023-04-09T01:50:55;10.85;;;9.85;;
5022;SDS011;2530;47.990;7.866;2023-04-09T01:53:22;10.63;;;9.63;;
5022;SDS011;2530;47.990;7.866;2023-04-09T01:55:48;10.35;;;9.35;;
5022;SDS011;2530;47.990;7.866;2023-04-09T01:58:13;10.82;;;9.82;;
5022;SDS011;2530;47.990;7.866;2023-04-09T02:00:42;9.98;;;9.07;;
5022;SDS011;2530;47.990;7.866;2023-04-09T02:03:20;10.57;;;9.57;;
5022;SDS011;2530;47.990;7.866;2023-04-09T02:06:08;9.98;;;9.07;;
5022;SDS011;2530;47.990;7.866;2023-04-09T02:08:40;11.00;;;9.90;;
5022;SDS011;2530;47.990;7.866;2023-04-09T02:11:10;10.70;;;9.60;;
5022;SDS011;2530;47.990;7.866;2023-04-09T02:13:36;11.32;;;10.25;;
5022;SDS011;2530;47.990;7.866;2023-04-09T02:18:32;10.50;;;9.50;;
5022;SDS011;2530;47.990;7.866;2023-04-09T02:20:58;10.33;;;9.33;;
5022;SDS011;2530;47.990;7.866;2023-04-09T02:23:24;10.77;;;9.77;;
5022;SDS011;2530;47.990;7.866;2023-04-09T02:25:51;11.13;;;10.13;;
5022;SDS011;2530;47.990;7.866;2023-04-09T02:28:17;11.27;;;10.07;;
5022;SDS011;2530;47.990;7.866;2023-04-09T02:30:43;11.07;;;9.98;;
5022;SDS011;2530;47.990;7.866;2023-04-09T02:33:08;10.95;;;9.95;;
5022;SDS011;2530;47.990;7.866;2023-04-09T02:35:34;10.32;;;9.43;;
5022;SDS011;2530;47.990;7.866;2023-04-09T02:37:59;10.60;;;9.60;;
5022;SDS011;2530;47.990;7.866;2023-04-09T02:40:25;10.57;;;9.68;;
5022;SDS011;2530;47.990;7.866;2023-04-09T02:42:51;11.50;;;10.40;;
5022;SDS011;2530;47.990;7.866;2023-04-09T02:45:17;10.90;;;9.90;;
5022;SDS011;2530;47.990;7.866;2023-04-09T02:47:42;10.87;;;9.83;;
5022;SDS011;2530;47.990;7.866;2023-04-09T02:50:08;10.80;;;9.80;;
5022;SDS011;2530;47.990;7.866;2023-04-09T02:52:34;10.85;;;9.85;;
5022;SDS011;2530;47.990;7.866;2023-04-09T02:54:59;10.60;;;9.60;;
5022;SDS011;2530;47.990;7.866;2023-04-09T02:57:25;11.18;;;10.07;;
5022;SDS011;2530;47.990;7.866;2023-04-09T02:59:50;10.77;;;9.77;;
5022;SDS011;2530;47.990;7.866;2023-04-09T03:02:16;11.85;;;10.65;;
5022;SDS011;2530;47.990;7.866;2023-04-09T03:04:41;11.20;;;10.20;;
5022;SDS011;2530;47.990;7.866;2023-04-09T03:07:07;10.67;;;9.67;;
5022;SDS011;2530;47.990;7.866;2023-04-09T03:09:32;10.70;;;9.50;;
5022;SDS011;2530;47.990;7.866;2023-04-09T03:11:58;9.50;;;8.70;;
5022;SDS011;2530;47.990;7.866;2023-04-09T03:14:23;11.20;;;10.10;;
5022;SDS011;2530;47.990;7.866;2023-04-09T03:16:49;10.70;;;9.60;;
5022;SDS011;2530;47.990;7.866;2023-04-09T03:19:14;10.90;;;9.77;;
5022;SDS011;2530;47.990;7.866;2023-04-09T03:21:40;11.18;;;10.10;;
5022;SDS011;2530;47.990;7.866;2023-04-09T03:24:06;11.33;;;10.23;;
5022;SDS011;2530;47.990;7.866;2023-04-09T03:26:32;10.67;;;9.60;;
5022;SDS011;2530;47.990;7.866;2023-04-09T03:29:00;11.98;;;10.77;;
5022;SDS011;2530;47.990;7.866;2023-04-09T03:31:26;12.05;;;10.70;;
5022;SDS011;2530;47.990;7.866;2023-04-09T03:33:52;11.50;;;10.30;;
5022;SDS011;2530;47.990;7.866;2023-04-09T03:36:17;10.97;;;9.67;;
5022;SDS011;2530;47.990;7.866;2023-04-09T03:38:43;11.63;;;10.53;;
5022;SDS011;2530;47.990;7.866;2023-04-09T03:41:08;10.90;;;9.80;;
5022;SDS011;2530;47.990;7.866;2023-04-09T03:43:34;11.80;;;10.60;;
5022;SDS011;2530;47.990;7.866;2023-04-09T03:46:00;11.90;;;10.80;;
5022;SDS011;2530;47.990;7.866;2023-04-09T03:48:25;11.83;;;10.73;;
5022;SDS011;2530;47.990;7.866;2023-04-09T03:50:51;10.73;;;9.63;;
5022;SDS011;2530;47.990;7.866;2023-04-09T03:53:17;11.75;;;10.65;;
5022;SDS011;2530;47.990;7.866;2023-04-09T03:55:43;11.33;;;10.13;;
5022;SDS011;2530;47.990;7.866;2023-04-09T03:58:08;11.88;;;10.68;;
5022;SDS011;2530;47.990;7.866;2023-04-09T04:00:34;11.93;;;10.47;;
5022;SDS011;2530;47.990;7.866;2023-04-09T04:03:00;11.60;;;10.50;;
5022;SDS011;2530;47.990;7.866;2023-04-09T04:05:25;11.87;;;10.57;;
5022;SDS011;2530;47.990;7.866;2023-04-09T04:07:51;10.80;;;9.80;;
5022;SDS011;2530;47.990;7.866;2023-04-09T04:10:16;11.25;;;10.25;;
5022;SDS011;2530;47.990;7.866;2023-04-09T04:12:42;11.60;;;10.50;;
5022;SDS011;2530;47.990;7.866;2023-04-09T04:15:07;10.73;;;9.68;;
5022;SDS011;2530;47.990;7.866;2023-04-09T04:17:34;11.93;;;10.60;;
5022;SDS011;2530;47.990;7.866;2023-04-09T04:19:59;11.20;;;10.20;;
5022;SDS011;2530;47.990;7.866;2023-04-09T04:22:25;11.53;;;10.43;;
5022;SDS011;2530;47.990;7.866;2023-04-09T04:24:50;11.27;;;10.10;;
5022;SDS011;2530;47.990;7.866;2023-04-09T04:27:16;12.00;;;10.80;;
5022;SDS011;2530;47.990;7.866;2023-04-09T04:29:41;11.40;;;10.20;;
5022;SDS011;2530;47.990;7.866;2023-04-09T04:32:07;12.60;;;11.40;;
5022;SDS011;2530;47.990;7.866;2023-04-09T04:34:32;12.50;;;10.88;;
5022;SDS011;2530;47.990;7.866;2023-04-09T04:36:58;12.27;;;10.90;;
5022;SDS011;2530;47.990;7.866;2023-04-09T04:39:23;13.43;;;12.02;;
5022;SDS011;2530;47.990;7.866;2023-04-09T04:41:49;12.02;;;10.82;;
5022;SDS011;2530;47.990;7.866;2023-04-09T04:44:15;12.48;;;11.27;;
5022;SDS011;2530;47.990;7.866;2023-04-09T04:46:40;12.50;;;11.20;;
5022;SDS011;2530;47.990;7.866;2023-04-09T04:49:06;11.85;;;10.65;;
5022;SDS011;2530;47.990;7.866;2023-04-09T04:51:31;12.15;;;10.95;;
5022;SDS011;2530;47.990;7.866;2023-04-09T04:53:57;13.85;;;11.43;;
5022;SDS011;2530;47.990;7.866;2023-04-09T04:56:22;11.68;;;10.57;;
5022;SDS011;2530;47.990;7.866;2023-04-09T04:58:48;11.00;;;9.80;;
5022;SDS011;2530;47.990;7.866;2023-04-09T05:01:13;11.60;;;10.40;;
5022;SDS011;2530;47.990;7.866;2023-04-09T05:03:39;11.37;;;10.23;;
5022;SDS011;2530;47.990;7.866;2023-04-09T05:06:04;10.70;;;9.70;;
5022;SDS011;2530;47.990;7.866;2023-04-09T05:08:30;11.03;;;9.80;;
5022;SDS011;2530;47.990;7.866;2023-04-09T05:10:56;10.85;;;9.45;;
5022;SDS011;2530;47.990;7.866;2023-04-09T05:13:21;10.32;;;9.32;;
5022;SDS011;2530;47.990;7.866;2023-04-09T05:15:47;10.55;;;9.55;;
5022;SDS011;2530;47.990;7.866;2023-04-09T05:18:13;10.70;;;9.65;;
5022;SDS011;2530;47.990;7.866;2023-04-09T05:20:39;10.10;;;9.10;;
5022;SDS011;2530;47.990;7.866;2023-04-09T05:23:04;10.50;;;9.40;;
5022;SDS011;2530;47.990;7.866;2023-04-09T05:25:30;9.70;;;8.20;;
5022;SDS011;2530;47.990;7.866;2023-04-09T05:27:55;8.77;;;7.97;;
5022;SDS011;2530;47.990;7.866;2023-04-09T05:30:21;10.20;;;9.20;;
5022;SDS011;2530;47.990;7.866;2023-04-09T05:32:47;9.60;;;8.70;;
5022;SDS011;2530;47.990;7.866;2023-04-09T05:35:12;9.20;;;8.30;;
5022;SDS011;2530;47.990;7.866;2023-04-09T05:37:38;10.30;;;9.30;;
5022;SDS011;2530;47.990;7.866;2023-04-09T05:40:03;8.57;;;7.60;;
5022;SDS011;2530;47.990;7.866;2023-04-09T05:42:30;9.48;;;8.35;;
5022;SDS011;2530;47.990;7.866;2023-04-09T05:44:55;9.47;;;8.50;;
5022;SDS011;2530;47.990;7.866;2023-04-09T05:47:21;8.80;;;7.90;;
5022;SDS011;2530;47.990;7.866;2023-04-09T05:49:46;9.98;;;8.98;;
5022;SDS011;2530;47.990;7.866;2023-04-09T05:52:12;10.55;;;8.80;;
5022;SDS011;2530;47.990;7.866;2023-04-09T05:54:38;9.80;;;8.80;;
5022;SDS011;2530;47.990;7.866;2023-04-09T05:57:04;9.97;;;8.97;;
5022;SDS011;2530;47.990;7.866;2023-04-09T05:59:29;9.10;;;8.20;;
5022;SDS011;2530;47.990;7.866;2023-04-09T06:01:55;9.10;;;8.20;;
5022;SDS011;2530;47.990;7.866;2023-04-09T06:04:20;10.20;;;8.70;;
5022;SDS011;2530;47.990;7.866;2023-04-09T06:06:46;9.73;;;8.73;;
5022;SDS011;2530;47.990;7.866;2023-04-09T06:09:12;9.70;;;8.80;;
5022;SDS011;2530;47.990;7.866;2023-04-09T06:11:37;8.83;;;7.93;;
5022;SDS011;2530;47.990;7.866;2023-04-09T06:14:03;8.97;;;8.07;;
5022;SDS011;2530;47.990;7.866;2023-04-09T06:16:28;8.90;;;8.00;;
5022;SDS011;2530;47.990;7.866;2023-04-09T06:18:54;9.45;;;8.50;;
5022;SDS011;2530;47.990;7.866;2023-04-09T06:21:21;9.43;;;8.43;;
5022;SDS011;2530;47.990;7.866;2023-04-09T06:23:46;9.95;;;8.95;;
5022;SDS011;2530;47.990;7.866;2023-04-09T06:26:12;9.63;;;8.73;;
5022;SDS011;2530;47.990;7.866;2023-04-09T06:28:38;9.63;;;8.67;;
5022;SDS011;2530;47.990;7.866;2023-04-09T06:31:03;10.00;;;9.00;;
5022;SDS011;2530;47.990;7.866;2023-04-09T06:33:29;10.33;;;9.20;;
5022;SDS011;2530;47.990;7.866;2023-04-09T06:35:54;10.18;;;9.18;;
5022;SDS011;2530;47.990;7.866;2023-04-09T06:38:20;10.80;;;9.70;;
5022;SDS011;2530;47.990;7.866;2023-04-09T06:40:45;9.65;;;8.65;;
5022;SDS011;2530;47.990;7.866;2023-04-09T06:43:11;9.67;;;8.77;;
5022;SDS011;2530;47.990;7.866;2023-04-09T06:45:36;10.73;;;9.63;;
5022;SDS011;2530;47.990;7.866;2023-04-09T06:48:02;9.02;;;8.13;;
5022;SDS011;2530;47.990;7.866;2023-04-09T06:50:28;9.38;;;8.48;;
5022;SDS011;2530;47.990;7.866;2023-04-09T06:52:53;9.20;;;8.30;;
5022;SDS011;2530;47.990;7.866;2023-04-09T06:55:19;8.80;;;7.90;;
5022;SDS011;2530;47.990;7.866;2023-04-09T06:57:45;8.75;;;7.85;;
5022;SDS011;2530;47.990;7.866;2023-04-09T07:00:11;8.23;;;7.43;;
5022;SDS011;2530;47.990;7.866;2023-04-09T07:02:37;9.20;;;7.80;;
5022;SDS011;2530;47.990;7.866;2023-04-09T07:05:03;8.55;;;7.75;;
5022;SDS011;2530;47.990;7.866;2023-04-09T07:07:29;8.75;;;7.85;;
5022;SDS011;2530;47.990;7.866;2023-04-09T07:09:55;9.10;;;8.20;;
5022;SDS011;2530;47.990;7.866;2023-04-09T07:12:30;7.97;;;7.15;;
5022;SDS011;2530;47.990;7.866;2023-04-09T07:14:57;8.15;;;7.40;;
5022;SDS011;2530;47.990;7.866;2023-04-09T07:17:24;8.02;;;7.22;;
5022;SDS011;2530;47.990;7.866;2023-04-09T07:19:49;7.70;;;7.00;;
5022;SDS011;2530;47.990;7.866;2023-04-09T07:22:16;8.00;;;7.30;;
5022;SDS011;2530;47.990;7.866;2023-04-09T07:24:41;7.82;;;7.03;;
5022;SDS011;2530;47.990;7.866;2023-04-09T07:27:07;7.65;;;6.85;;
5022;SDS011;2530;47.990;7.866;2023-04-09T07:29:33;7.50;;;6.70;;
5022;SDS011;2530;47.990;7.866;2023-04-09T07:31:59;7.30;;;6.60;;
5022;SDS011;2530;47.990;7.866;2023-04-09T07:34:25;7.10;;;6.40;;
5022;SDS011;2530;47.990;7.866;2023-04-09T07:36:51;6.95;;;6.25;;
5022;SDS011;2530;47.990;7.866;2023-04-09T07:39:17;6.50;;;5.90;;
5022;SDS011;2530;47.990;7.866;2023-04-09T07:41:43;6.50;;;5.90;;
5022;SDS011;2530;47.990;7.866;2023-04-09T07:44:08;7.00;;;6.30;;
5022;SDS011;2530;47.990;7.866;2023-04-09T07:46:34;6.23;;;5.50;;
5022;SDS011;2530;47.990;7.866;2023-04-09T07:48:59;6.03;;;5.43;;
5022;SDS011;2530;47.990;7.866;2023-04-09T07:51:25;7.03;;;6.00;;
5022;SDS011;2530;47.990;7.866;2023-04-09T07:53:51;6.80;;;6.10;;
5022;SDS011;2530;47.990;7.866;2023-04-09T07:56:17;5.90;;;5.30;;
5022;SDS011;2530;47.990;7.866;2023-04-09T07:58:42;5.90;;;5.30;;
5022;SDS011;2530;47.990;7.866;2023-04-09T08:01:08;6.68;;;5.50;;
5022;SDS011;2530;47.990;7.866;2023-04-09T08:03:34;5.20;;;4.80;;
5022;SDS011;2530;47.990;7.866;2023-04-09T08:06:00;5.47;;;4.97;;
5022;SDS011;2530;47.990;7.866;2023-04-09T08:08:26;5.67;;;5.17;;
5022;SDS011;2530;47.990;7.866;2023-04-09T08:10:51;5.47;;;4.97;;
5022;SDS011;2530;47.990;7.866;2023-04-09T08:13:17;5.18;;;4.70;;
5022;SDS011;2530;47.990;7.866;2023-04-09T08:15:42;4.85;;;4.45;;
5022;SDS011;2530;47.990;7.866;2023-04-09T08:18:08;4.90;;;4.50;;
5022;SDS011;2530;47.990;7.866;2023-04-09T08:20:33;4.93;;;4.53;;
5022;SDS011;2530;47.990;7.866;2023-04-09T08:22:59;4.80;;;4.30;;
5022;SDS011;2530;47.990;7.866;2023-04-09T08:25:25;4.50;;;4.10;;
5022;SDS011;2530;47.990;7.866;2023-04-09T08:27:50;4.53;;;4.13;;
5022;SDS011;2530;47.990;7.866;2023-04-09T08:30:16;4.45;;;4.05;;
5022;SDS011;2530;47.990;7.866;2023-04-09T08:32:41;4.10;;;3.80;;
5022;SDS011;2530;47.990;7.866;2023-04-09T08:35:08;4.47;;;4.07;;
5022;SDS011;2530;47.990;7.866;2023-04-09T08:37:34;4.30;;;3.90;;
5022;SDS011;2530;47.990;7.866;2023-04-09T08:39:59;4.40;;;4.00;;
5022;SDS011;2530;47.990;7.866;2023-04-09T08:42:25;5.43;;;4.23;;
5022;SDS011;2530;47.990;7.866;2023-04-09T08:44:51;4.87;;;4.47;;
5022;SDS011;2530;47.990;7.866;2023-04-09T08:47:17;4.27;;;3.87;;
5022;SDS011;2530;47.990;7.866;2023-04-09T08:49:44;4.10;;;3.70;;
5022;SDS011;2530;47.990;7.866;2023-04-09T08:52:12;3.72;;;3.42;;
5022;SDS011;2530;47.990;7.866;2023-04-09T08:54:40;4.50;;;4.10;;
5022;SDS011;2530;47.990;7.866;2023-04-09T08:57:05;3.80;;;3.50;;
5022;SDS011;2530;47.990;7.866;2023-04-09T08:59:31;4.10;;;3.70;;
5022;SDS011;2530;47.990;7.866;2023-04-09T09:02:07;4.60;;;4.20;;
5022;SDS011;2530;47.990;7.866;2023-04-09T09:04:45;6.75;;;3.80;;
5022;SDS011;2530;47.990;7.866;2023-04-09T09:07:12;4.00;;;3.70;;
5022;SDS011;2530;47.990;7.866;2023-04-09T09:09:51;3.97;;;3.58;;
5022;SDS011;2530;47.990;7.866;2023-04-09T09:12:36;3.08;;;2.88;;
5022;SDS011;2530;47.990;7.866;2023-04-09T09:15:03;3.20;;;2.90;;
5022;SDS011;2530;47.990;7.866;2023-04-09T09:17:55;3.30;;;3.00;;
5022;SDS011;2530;47.990;7.866;2023-04-09T09:20:22;3.15;;;2.85;;
5022;SDS011;2530;47.990;7.866;2023-04-09T09:22:49;3.20;;;2.90;;
5022;SDS011;2530;47.990;7.866;2023-04-09T09:25:16;3.38;;;3.08;;
5022;SDS011;2530;47.990;7.866;2023-04-09T09:27:41;3.10;;;2.90;;
5022;SDS011;2530;47.990;7.866;2023-04-09T09:30:08;3.40;;;3.10;;
5022;SDS011;2530;47.990;7.866;2023-04-09T09:32:44;3.10;;;2.90;;
5022;SDS011;2530;47.990;7.866;2023-04-09T09:35:09;3.40;;;3.10;;
5022;SDS011;2530;47.990;7.866;2023-04-09T09:37:35;3.35;;;2.90;;
5022;SDS011;2530;47.990;7.866;2023-04-09T09:40:01;3.60;;;3.30;;
5022;SDS011;2530;47.990;7.866;2023-04-09T09:42:27;2.85;;;2.65;;
5022;SDS011;2530;47.990;7.866;2023-04-09T09:44:53;3.20;;;2.90;;
5022;SDS011;2530;47.990;7.866;2023-04-09T09:47:19;2.83;;;2.60;;
5022;SDS011;2530;47.990;7.866;2023-04-09T09:49:48;2.80;;;2.60;;
5022;SDS011;2530;47.990;7.866;2023-04-09T09:52:17;2.80;;;2.60;;
5022;SDS011;2530;47.990;7.866;2023-04-09T09:54:50;2.90;;;2.70;;
5022;SDS011;2530;47.990;7.866;2023-04-09T09:57:18;2.90;;;2.70;;
5022;SDS011;2530;47.990;7.866;2023-04-09T09:59:54;3.30;;;3.00;;
5022;SDS011;2530;47.990;7.866;2023-04-09T10:02:24;3.00;;;2.70;;
5022;SDS011;2530;47.990;7.866;2023-04-09T10:04:54;2.65;;;2.40;;
5022;SDS011;2530;47.990;7.866;2023-04-09T10:07:24;2.20;;;2.00;;
5022;SDS011;2530;47.990;7.866;2023-04-09T10:09:50;2.50;;;2.30;;
5022;SDS011;2530;47.990;7.866;2023-04-09T10:12:19;2.70;;;2.50;;
5022;SDS011;2530;47.990;7.866;2023-04-09T10:14:47;2.92;;;2.72;;
5022;SDS011;2530;47.990;7.866;2023-04-09T10:17:15;2.80;;;2.60;;
5022;SDS011;2530;47.990;7.866;2023-04-09T10:19:41;3.13;;;2.83;;
5022;SDS011;2530;47.990;7.866;2023-04-09T10:22:15;2.60;;;2.40;;
5022;SDS011;2530;47.990;7.866;2023-04-09T10:24:43;2.97;;;2.67;;
5022;SDS011;2530;47.990;7.866;2023-04-09T10:27:11;2.50;;;2.30;;
5022;SDS011;2530;47.990;7.866;2023-04-09T10:29:48;2.58;;;2.38;;
5022;SDS011;2530;47.990;7.866;2023-04-09T10:32:19;2.60;;;2.40;;
5022;SDS011;2530;47.990;7.866;2023-04-09T10:34:48;2.83;;;2.63;;
5022;SDS011;2530;47.990;7.866;2023-04-09T10:37:22;2.20;;;2.00;;
5022;SDS011;2530;47.990;7.866;2023-04-09T10:39:49;2.47;;;2.27;;
5022;SDS011;2530;47.990;7.866;2023-04-09T10:42:21;2.65;;;2.45;;
5022;SDS011;2530;47.990;7.866;2023-04-09T10:45:03;2.88;;;2.65;;
5022;SDS011;2530;47.990;7.866;2023-04-09T10:47:32;2.90;;;2.70;;
5022;SDS011;2530;47.990;7.866;2023-04-09T10:52:55;3.50;;;3.20;;
5022;SDS011;2530;47.990;7.866;2023-04-09T10:55:35;3.40;;;2.80;;
5022;SDS011;2530;47.990;7.866;2023-04-09T10:58:06;3.40;;;3.10;;
5022;SDS011;2530;47.990;7.866;2023-04-09T11:00:36;2.90;;;2.70;;
5022;SDS011;2530;47.990;7.866;2023-04-09T11:03:17;2.78;;;2.58;;
5022;SDS011;2530;47.990;7.866;2023-04-09T11:05:50;2.83;;;2.63;;
5022;SDS011;2530;47.990;7.866;2023-04-09T11:08:36;3.20;;;2.90;;
5022;SDS011;2530;47.990;7.866;2023-04-09T11:11:02;3.22;;;2.92;;
5022;SDS011;2530;47.990;7.866;2023-04-09T11:13:29;3.10;;;2.90;;
5022;SDS011;2530;47.990;7.866;2023-04-09T11:15:56;3.42;;;3.22;;
5022;SDS011;2530;47.990;7.866;2023-04-09T11:18:26;3.20;;;3.00;;
5022;SDS011;2530;47.990;7.866;2023-04-09T11:20:57;2.75;;;2.55;;
5022;SDS011;2530;47.990;7.866;2023-04-09T11:23:24;3.28;;;2.97;;
5022;SDS011;2530;47.990;7.866;2023-04-09T11:25:50;3.07;;;2.77;;
5022;SDS011;2530;47.990;7.866;2023-04-09T11:28:16;3.25;;;2.50;;
5022;SDS011;2530;47.990;7.866;2023-04-09T11:30:43;2.80;;;2.60;;
5022;SDS011;2530;47.990;7.866;2023-04-09T11:33:10;2.80;;;2.60;;
5022;SDS011;2530;47.990;7.866;2023-04-09T11:35:36;3.07;;;2.87;;
5022;SDS011;2530;47.990;7.866;2023-04-09T11:38:06;2.70;;;2.50;;
5022;SDS011;2530;47.990;7.866;2023-04-09T11:40:32;3.05;;;2.85;;
5022;SDS011;2530;47.990;7.866;2023-04-09T11:42:58;2.60;;;2.40;;
5022;SDS011;2530;47.990;7.866;2023-04-09T11:45:26;3.20;;;3.00;;
5022;SDS011;2530;47.990;7.866;2023-04-09T11:47:52;2.90;;;2.70;;
5022;SDS011;2530;47.990;7.866;2023-04-09T11:50:18;2.72;;;2.53;;
5022;SDS011;2530;47.990;7.866;2023-04-09T11:52:45;2.90;;;2.70;;
5022;SDS011;2530;47.990;7.866;2023-04-09T11:55:11;2.92;;;2.72;;
5022;SDS011;2530;47.990;7.866;2023-04-09T11:57:46;2.80;;;2.60;;
5022;SDS011;2530;47.990;7.866;2023-04-09T12:02:48;2.97;;;2.77;;
5022;SDS011;2530;47.990;7.866;2023-04-09T12:05:21;2.80;;;2.60;;
5022;SDS011;2530;47.990;7.866;2023-04-09T12:07:48;2.90;;;2.70;;
5022;SDS011;2530;47.990;7.866;2023-04-09T12:10:14;3.10;;;2.90;;
5022;SDS011;2530;47.990;7.866;2023-04-09T12:12:44;2.90;;;2.70;;
5022;SDS011;2530;47.990;7.866;2023-04-09T12:17:53;2.90;;;2.70;;
5022;SDS011;2530;47.990;7.866;2023-04-09T12:20:29;2.92;;;2.72;;
5022;SDS011;2530;47.990;7.866;2023-04-09T12:23:00;2.97;;;2.78;;
5022;SDS011;2530;47.990;7.866;2023-04-09T12:25:28;2.70;;;2.50;;
5022;SDS011;2530;47.990;7.866;2023-04-09T12:27:54;2.80;;;2.60;;
5022;SDS011;2530;47.990;7.866;2023-04-09T12:30:21;2.40;;;2.20;;
5022;SDS011;2530;47.990;7.866;2023-04-09T12:32:47;2.80;;;2.60;;
5022;SDS011;2530;47.990;7.866;2023-04-09T12:35:13;2.70;;;2.50;;
5022;SDS011;2530;47.990;7.866;2023-04-09T12:37:39;2.90;;;2.70;;
5022;SDS011;2530;47.990;7.866;2023-04-09T12:40:05;2.70;;;2.50;;
5022;SDS011;2530;47.990;7.866;2023-04-09T12:42:31;2.53;;;2.33;;
5022;SDS011;2530;47.990;7.866;2023-04-09T12:44:57;2.67;;;2.47;;
5022;SDS011;2530;47.990;7.866;2023-04-09T12:47:23;2.50;;;2.30;;
5022;SDS011;2530;47.990;7.866;2023-04-09T12:49:48;2.50;;;2.30;;
5022;SDS011;2530;47.990;7.866;2023-04-09T12:52:14;2.30;;;2.20;;
5022;SDS011;2530;47.990;7.866;2023-04-09T12:54:40;2.90;;;2.70;;
5022;SDS011;2530;47.990;7.866;2023-04-09T12:57:06;2.30;;;2.10;;
5022;SDS011;2530;47.990;7.866;2023-04-09T12:59:31;2.20;;;2.10;;
5022;SDS011;2530;47.990;7.866;2023-04-09T13:01:57;2.20;;;2.10;;
5022;SDS011;2530;47.990;7.866;2023-04-09T13:04:22;1.90;;;1.80;;
5022;SDS011;2530;47.990;7.866;2023-04-09T13:06:48;2.55;;;2.35;;
5022;SDS011;2530;47.990;7.866;2023-04-09T13:09:14;2.40;;;2.20;;
5022;SDS011;2530;47.990;7.866;2023-04-09T13:11:39;2.40;;;2.20;;
5022;SDS011;2530;47.990;7.866;2023-04-09T13:14:05;2.30;;;2.10;;
5022;SDS011;2530;47.990;7.866;2023-04-09T13:16:31;2.30;;;2.10;;
5022;SDS011;2530;47.990;7.866;2023-04-09T13:18:58;2.10;;;2.00;;
5022;SDS011;2530;47.990;7.866;2023-04-09T13:21:23;2.47;;;2.28;;
5022;SDS011;2530;47.990;7.866;2023-04-09T13:23:50;1.98;;;1.88;;
5022;SDS011;2530;47.990;7.866;2023-04-09T13:26:15;2.20;;;2.10;;
5022;SDS011;2530;47.990;7.866;2023-04-09T13:28:41;2.20;;;2.10;;
5022;SDS011;2530;47.990;7.866;2023-04-09T13:31:06;2.70;;;2.50;;
5022;SDS011;2530;47.990;7.866;2023-04-09T13:33:32;2.30;;;2.10;;
5022;SDS011;2530;47.990;7.866;2023-04-09T13:35:58;2.20;;;2.00;;
5022;SDS011;2530;47.990;7.866;2023-04-09T13:38:23;2.20;;;2.00;;
5022;SDS011;2530;47.990;7.866;2023-04-09T13:40:49;2.20;;;2.00;;
5022;SDS011;2530;47.990;7.866;2023-04-09T13:43:14;2.20;;;2.00;;
5022;SDS011;2530;47.990;7.866;2023-04-09T13:45:40;2.60;;;2.40;;
5022;SDS011;2530;47.990;7.866;2023-04-09T13:48:06;2.60;;;2.40;;
5022;SDS011;2530;47.990;7.866;2023-04-09T13:50:32;2.43;;;2.27;;
5022;SDS011;2530;47.990;7.866;2023-04-09T13:52:57;2.40;;;2.20;;
5022;SDS011;2530;47.990;7.866;2023-04-09T13:55:23;2.80;;;2.60;;
5022;SDS011;2530;47.990;7.866;2023-04-09T13:57:48;2.97;;;2.78;;
5022;SDS011;2530;47.990;7.866;2023-04-09T14:00:14;2.80;;;2.60;;
5022;SDS011;2530;47.990;7.866;2023-04-09T14:02:40;2.80;;;2.60;;
5022;SDS011;2530;47.990;7.866;2023-04-09T14:05:05;2.70;;;2.50;;
5022;SDS011;2530;47.990;7.866;2023-04-09T14:07:31;3.10;;;2.90;;
5022;SDS011;2530;47.990;7.866;2023-04-09T14:09:57;2.37;;;2.10;;
5022;SDS011;2530;47.990;7.866;2023-04-09T14:12:22;2.40;;;2.20;;
5022;SDS011;2530;47.990;7.866;2023-04-09T14:14:48;2.67;;;2.47;;
5022;SDS011;2530;47.990;7.866;2023-04-09T14:17:13;2.60;;;2.40;;
5022;SDS011;2530;47.990;7.866;2023-04-09T14:19:39;2.40;;;2.20;;
5022;SDS011;2530;47.990;7.866;2023-04-09T14:22:05;2.23;;;2.10;;
5022;SDS011;2530;47.990;7.866;2023-04-09T14:24:34;2.70;;;2.50;;
5022;SDS011;2530;47.990;7.866;2023-04-09T14:27:04;2.35;;;2.15;;
5022;SDS011;2530;47.990;7.866;2023-04-09T14:29:30;2.50;;;2.30;;
5022;SDS011;2530;47.990;7.866;2023-04-09T14:31:56;2.33;;;2.20;;
5022;SDS011;2530;47.990;7.866;2023-04-09T14:34:21;2.80;;;2.60;;
5022;SDS011;2530;47.990;7.866;2023-04-09T14:36:47;2.50;;;2.30;;
5022;SDS011;2530;47.990;7.866;2023-04-09T14:39:12;2.47;;;2.28;;
5022;SDS011;2530;47.990;7.866;2023-04-09T14:41:38;4.50;;;2.73;;
5022;SDS011;2530;47.990;7.866;2023-04-09T14:44:03;2.50;;;2.30;;
5022;SDS011;2530;47.990;7.866;2023-04-09T14:46:29;3.13;;;2.92;;
5022;SDS011;2530;47.990;7.866;2023-04-09T14:48:55;2.70;;;2.50;;
5022;SDS011;2530;47.990;7.866;2023-04-09T14:51:20;3.00;;;2.80;;
5022;SDS011;2530;47.990;7.866;2023-04-09T14:53:46;2.67;;;2.47;;
5022;SDS011;2530;47.990;7.866;2023-04-09T14:56:12;2.65;;;2.45;;
5022;SDS011;2530;47.990;7.866;2023-04-09T14:58:38;2.60;;;2.40;;
5022;SDS011;2530;47.990;7.866;2023-04-09T15:01:03;2.60;;;2.40;;
5022;SDS011;2530;47.990;7.866;2023-04-09T15:03:29;3.03;;;2.83;;
5022;SDS011;2530;47.990;7.866;2023-04-09T15:05:55;2.83;;;2.63;;
5022;SDS011;2530;47.990;7.866;2023-04-09T15:08:20;3.10;;;2.90;;
5022;SDS011;2530;47.990;7.866;2023-04-09T15:10:47;2.80;;;2.60;;
5022;SDS011;2530;47.990;7.866;2023-04-09T15:13:12;2.60;;;2.40;;
5022;SDS011;2530;47.990;7.866;2023-04-09T15:15:41;3.15;;;2.85;;
5022;SDS011;2530;47.990;7.866;2023-04-09T15:18:08;2.45;;;2.28;;
5022;SDS011;2530;47.990;7.866;2023-04-09T15:20:37;2.70;;;2.50;;
5022;SDS011;2530;47.990;7.866;2023-04-09T15:23:03;2.75;;;2.55;;
5022;SDS011;2530;47.990;7.866;2023-04-09T15:25:29;2.97;;;2.50;;